Time;durP1;ratioP1;P1;durP2;ratioP2;P2;SDS_P1;SDS_P2;PMS_P1;PMS_P2;Temp;Humidity;BMP_temperature;BMP_pressure;BME280_temperature;BME280_humidity;BME280_pressure;Samples;Min_cycle;Max_cycle;Signal;HPM_P1;HPM_P2
2022/04/15 00:01:37;;;;;;;45.87;27.20;;;14.10;68.20;;;;;;5056911;28;47937;-67
2022/04/15 00:04:03;;;;;;;41.37;27.37;;;14.10;68.20;;;;;;5053678;28;46276;-67
2022/04/15 00:06:29;;;;;;;43.30;26.40;;;14.00;68.10;;;;;;5065363;28;46423;-66
2022/04/15 00:08:56;;;;;;;44.00;27.63;;;14.00;68.10;;;;;;5064213;28;45849;-67
2022/04/15 00:11:21;;;;;;;47.73;29.47;;;14.00;68.10;;;;;;5064484;28;48033;-66
2022/04/15 00:13:48;;;;;;;44.20;27.40;;;14.00;68.10;;;;;;5058402;28;46504;-65
2022/04/15 00:16:14;;;;;;;43.90;28.00;;;14.00;68.10;;;;;;5065522;28;46432;-65
2022/04/15 00:18:40;;;;;;;40.37;27.57;;;14.00;68.10;;;;;;5062411;28;46609;-65
2022/04/15 00:21:05;;;;;;;47.10;28.27;;;14.00;68.10;;;;;;5055928;28;48827;-64
2022/04/15 00:23:31;;;;;;;43.47;28.70;;;14.00;68.10;;;;;;5060619;28;46466;-66
2022/04/15 00:25:58;;;;;;;42.90;28.97;;;14.00;68.10;;;;;;5056437;28;46416;-65
2022/04/15 00:28:24;;;;;;;43.03;28.67;;;14.10;68.20;;;;;;5064975;28;46303;-65
2022/04/15 00:30:50;;;;;;;45.53;27.90;;;14.00;68.20;;;;;;5057603;28;46302;-65
2022/04/15 00:33:15;;;;;;;46.00;29.37;;;14.10;68.20;;;;;;5063556;28;46354;-65
2022/04/15 00:35:42;;;;;;;40.93;27.83;;;14.10;68.20;;;;;;5083794;28;46437;-65
2022/04/15 00:38:08;;;;;;;44.60;29.60;;;14.10;68.20;;;;;;5057814;28;45966;-65
2022/04/15 00:40:34;;;;;;;43.17;27.13;;;14.10;68.20;;;;;;5054918;28;46751;-65
2022/04/15 00:43:00;;;;;;;43.93;29.20;;;14.10;68.20;;;;;;5064136;28;46292;-66
2022/04/15 00:45:25;;;;;;;45.80;29.10;;;14.00;68.10;;;;;;5064964;28;46437;-65
2022/04/15 00:47:59;;;;;;;44.63;27.77;;;14.00;68.20;;;;;;5064958;28;46569;-65
2022/04/15 00:50:29;;;;;;;48.10;28.53;;;14.00;68.20;;;;;;5081298;28;47212;-65
2022/04/15 00:52:58;;;;;;;44.60;29.57;;;14.00;68.10;;;;;;5077340;28;46532;-66
2022/04/15 00:55:28;;;;;;;50.27;28.47;;;14.10;68.20;;;;;;5055710;28;46509;-65
2022/04/15 00:57:57;;;;;;;45.63;28.10;;;14.10;68.20;;;;;;5081504;28;46351;-65
2022/04/15 01:00:24;;;;;;;35.93;26.67;;;14.10;68.20;;;;;;5055644;28;48093;-65
2022/04/15 01:02:50;;;;;;;40.30;26.63;;;14.20;67.90;;;;;;5055594;28;46414;-67
2022/04/15 01:05:17;;;;;;;37.83;26.20;;;14.20;67.60;;;;;;5053977;28;46357;-65
2022/04/15 01:07:49;;;;;;;38.63;26.93;;;14.20;67.60;;;;;;5064556;28;46236;-64
2022/04/15 01:10:16;;;;;;;45.20;28.17;;;14.10;67.60;;;;;;5052819;28;47885;-64
2022/04/15 01:12:46;;;;;;;39.63;26.27;;;14.10;68.00;;;;;;5054936;28;46287;-64
2022/04/15 01:15:13;;;;;;;36.03;27.10;;;14.10;68.20;;;;;;5055969;28;46484;-65
2022/04/15 01:17:39;;;;;;;43.00;26.37;;;14.00;68.10;;;;;;5055090;28;45917;-65
2022/04/15 01:20:11;;;;;;;43.90;28.80;;;14.00;68.10;;;;;;5064325;28;48960;-65
2022/04/15 01:22:39;;;;;;;41.63;27.60;;;14.00;68.20;;;;;;5081332;28;46412;-64
2022/04/15 01:25:07;;;;;;;38.43;27.10;;;14.00;68.10;;;;;;5080812;28;46422;-64
2022/04/15 01:27:37;;;;;;;39.37;28.80;;;14.00;68.20;;;;;;5063357;28;46305;-65
2022/04/15 01:30:04;;;;;;;41.70;27.80;;;14.00;68.10;;;;;;5059296;28;48080;-64
2022/04/15 01:32:30;;;;;;;43.97;27.87;;;13.90;68.00;;;;;;5064386;28;46489;-65
2022/04/15 01:34:56;;;;;;;41.70;26.67;;;13.80;68.20;;;;;;5082579;28;46321;-65
2022/04/15 01:37:23;;;;;;;45.60;28.57;;;13.80;68.70;;;;;;5055940;28;46781;-65
2022/04/15 01:39:50;;;;;;;39.60;26.70;;;13.80;68.80;;;;;;5064488;28;48048;-64
2022/04/15 01:42:16;;;;;;;42.50;27.50;;;13.80;68.90;;;;;;5057876;28;46363;-65
2022/04/15 01:44:43;;;;;;;40.50;27.60;;;13.70;68.90;;;;;;5054236;28;46461;-64
2022/04/15 01:47:10;;;;;;;39.13;27.73;;;13.80;69.10;;;;;;5064274;28;46472;-64
2022/04/15 01:49:37;;;;;;;43.33;28.10;;;13.70;68.90;;;;;;5064462;28;46576;-65
2022/04/15 01:52:03;;;;;;;50.43;30.10;;;13.80;68.90;;;;;;5057569;28;45882;-65
2022/04/15 01:54:30;;;;;;;39.80;28.33;;;13.80;68.80;;;;;;5062175;28;46375;-65
2022/04/15 01:56:56;;;;;;;44.27;29.20;;;13.80;68.80;;;;;;5063547;28;46561;-65
2022/04/15 01:59:23;;;;;;;47.33;29.10;;;13.80;68.70;;;;;;5063902;28;47748;-64
2022/04/15 02:01:49;;;;;;;44.63;30.63;;;13.80;69.00;;;;;;5063765;28;46444;-65
2022/04/15 02:04:15;;;;;;;49.10;29.87;;;13.70;69.40;;;;;;5057901;28;46700;-64
2022/04/15 02:06:41;;;;;;;49.00;29.23;;;13.70;69.50;;;;;;5081436;28;46421;-65
2022/04/15 02:09:07;;;;;;;44.87;29.70;;;13.60;69.70;;;;;;5081490;28;47131;-64
2022/04/15 02:11:34;;;;;;;46.00;31.90;;;13.50;71.00;;;;;;5063251;28;46432;-64
2022/04/15 02:13:59;;;;;;;54.43;31.40;;;13.40;72.00;;;;;;5077336;28;46581;-64
2022/04/15 02:16:25;;;;;;;48.30;33.20;;;13.40;72.00;;;;;;5053077;28;46369;-65
2022/04/15 02:18:51;;;;;;;54.87;34.10;;;13.50;71.80;;;;;;5058936;28;48017;-63
2022/04/15 02:21:17;;;;;;;55.47;32.87;;;13.60;71.90;;;;;;5083349;28;46421;-66
2022/04/15 02:23:42;;;;;;;56.70;34.47;;;13.50;72.20;;;;;;5054818;28;46434;-66
2022/04/15 02:26:08;;;;;;;52.97;33.57;;;13.50;72.50;;;;;;5063677;28;46448;-65
2022/04/15 02:28:34;;;;;;;51.63;33.37;;;13.50;73.20;;;;;;5055036;28;48219;-65
2022/04/15 02:30:59;;;;;;;57.13;35.27;;;13.60;72.90;;;;;;5063966;28;46370;-65
2022/04/15 02:33:25;;;;;;;53.40;34.30;;;13.60;72.30;;;;;;5082086;28;46452;-67
2022/04/15 02:35:51;;;;;;;58.87;34.57;;;13.70;72.30;;;;;;5062937;28;46654;-64
2022/04/15 02:38:16;;;;;;;52.17;34.07;;;13.70;72.20;;;;;;5063241;28;48066;-64
2022/04/15 02:40:43;;;;;;;56.90;35.47;;;13.70;72.30;;;;;;5061176;28;46350;-66
2022/04/15 02:43:09;;;;;;;52.03;33.90;;;13.80;72.30;;;;;;5081855;28;46356;-66
2022/04/15 02:45:35;;;;;;;49.80;32.17;;;13.80;71.80;;;;;;5060539;28;46611;-65
2022/04/15 02:48:01;;;;;;;56.60;36.93;;;13.90;71.70;;;;;;5081472;28;46488;-65
2022/04/15 02:50:28;;;;;;;50.83;32.70;;;13.90;71.60;;;;;;5054989;28;46446;-66
2022/04/15 02:52:54;;;;;;;47.67;32.07;;;13.90;71.80;;;;;;5079815;28;46429;-66
2022/04/15 02:55:20;;;;;;;50.40;32.50;;;13.90;71.70;;;;;;5062659;28;45924;-66
2022/04/15 02:57:46;;;;;;;48.60;32.53;;;13.80;72.30;;;;;;5056140;28;47963;-65
2022/04/15 03:00:14;;;;;;;50.57;31.10;;;13.80;72.50;;;;;;5056248;28;46204;-66
2022/04/15 03:02:39;;;;;;;56.03;33.60;;;13.80;72.60;;;;;;5055747;28;46686;-65
2022/04/15 03:05:09;;;;;;;54.27;34.47;;;13.80;72.70;;;;;;5063135;28;46518;-65
2022/04/15 03:07:37;;;;;;;48.00;32.23;;;13.70;72.90;;;;;;5062825;28;47729;-65
2022/04/15 03:10:05;;;;;;;49.10;30.63;;;13.60;73.70;;;;;;5063404;28;46406;-66
2022/04/15 03:12:38;;;;;;;50.60;30.30;;;13.60;74.70;;;;;;5062419;28;46405;-65
2022/04/15 03:15:05;;;;;;;54.30;32.03;;;13.50;75.20;;;;;;5080974;28;46503;-65
2022/04/15 03:17:32;;;;;;;53.77;32.80;;;13.40;75.20;;;;;;5055025;28;49179;-65
2022/04/15 03:19:58;;;;;;;51.03;31.30;;;13.40;75.00;;;;;;5056488;28;46448;-65
2022/04/15 03:22:23;;;;;;;49.70;31.07;;;13.50;74.80;;;;;;5066021;28;46478;-65
2022/04/15 03:24:52;;;;;;;47.23;30.70;;;13.50;75.00;;;;;;5064732;28;46572;-65
2022/04/15 03:27:18;;;;;;;48.53;30.83;;;13.50;74.60;;;;;;5056414;28;47936;-64
2022/04/15 03:29:44;;;;;;;43.43;30.50;;;13.60;74.30;;;;;;5066453;28;46390;-65
2022/04/15 03:32:10;;;;;;;43.80;29.83;;;13.70;74.10;;;;;;5060981;28;46854;-65
2022/04/15 03:34:39;;;;;;;43.53;30.17;;;13.60;73.80;;;;;;5065842;28;46542;-65
2022/04/15 03:37:05;;;;;;;47.73;31.03;;;13.60;74.00;;;;;;5060988;28;47999;-64
2022/04/15 03:39:31;;;;;;;46.37;29.87;;;13.60;74.30;;;;;;5083286;28;46521;-65
2022/04/15 03:41:57;;;;;;;51.73;30.13;;;13.60;74.20;;;;;;5066058;28;46561;-65
2022/04/15 03:44:23;;;;;;;46.80;31.13;;;13.60;73.90;;;;;;5059002;28;46564;-64
2022/04/15 03:46:49;;;;;;;44.90;29.93;;;13.60;73.70;;;;;;5066097;28;47897;-65
2022/04/15 03:49:14;;;;;;;44.53;29.43;;;13.60;73.60;;;;;;5066250;28;46547;-65
2022/04/15 03:51:40;;;;;;;44.77;29.80;;;13.60;73.60;;;;;;5084517;28;46401;-64
2022/04/15 03:54:06;;;;;;;45.17;32.00;;;13.60;73.50;;;;;;5056881;28;46383;-65
2022/04/15 03:56:32;;;;;;;51.17;29.33;;;13.60;73.50;;;;;;5059373;28;47836;-65
2022/04/15 03:58:58;;;;;;;47.57;30.97;;;13.50;73.50;;;;;;5065855;28;46403;-64
2022/04/15 04:01:24;;;;;;;54.43;31.70;;;13.50;73.80;;;;;;5083017;28;46335;-66
2022/04/15 04:03:51;;;;;;;47.80;33.30;;;13.50;74.00;;;;;;5065910;28;46380;-64
2022/04/15 04:06:17;;;;;;;59.17;32.80;;;13.40;74.20;;;;;;5065367;28;46607;-66
2022/04/15 04:08:49;;;;;;;51.70;32.07;;;13.40;74.10;;;;;;5056212;28;45851;-65
2022/04/15 04:11:16;;;;;;;50.03;31.97;;;13.40;74.10;;;;;;5064650;28;46462;-63
2022/04/15 04:13:41;;;;;;;53.50;32.50;;;13.50;74.00;;;;;;5054707;28;46629;-65
2022/04/15 04:16:07;;;;;;;53.67;34.63;;;13.40;74.00;;;;;;5060358;28;46396;-65
2022/04/15 04:18:33;;;;;;;51.30;34.60;;;13.40;74.40;;;;;;5065413;28;46350;-65
2022/04/15 04:20:59;;;;;;;57.87;34.53;;;13.40;74.20;;;;;;5084376;28;45751;-65
2022/04/15 04:23:24;;;;;;;53.30;32.77;;;13.40;74.10;;;;;;5057058;28;46457;-66
2022/04/15 04:25:50;;;;;;;46.70;32.27;;;13.50;74.10;;;;;;5048911;28;47351;-65
2022/04/15 04:28:15;;;;;;;47.40;31.40;;;13.50;73.90;;;;;;5065463;28;46307;-65
2022/04/15 04:30:41;;;;;;;50.80;33.57;;;13.50;73.70;;;;;;5078738;27;46426;-65
2022/04/15 04:33:07;;;;;;;48.53;30.70;;;13.60;73.50;;;;;;5057325;28;46410;-65
2022/04/15 04:35:33;;;;;;;46.53;30.30;;;13.60;73.30;;;;;;5065247;28;46711;-65
2022/04/15 04:37:58;;;;;;;47.47;31.07;;;13.60;73.10;;;;;;5064952;28;46465;-65
2022/04/15 04:40:24;;;;;;;44.90;30.40;;;13.70;73.10;;;;;;5059434;28;46441;-65
2022/04/15 04:42:53;;;;;;;48.07;32.23;;;13.70;73.00;;;;;;5060715;28;46629;-66
2022/04/15 04:45:19;;;;;;;45.20;31.17;;;13.70;72.90;;;;;;5064843;28;47900;-65
2022/04/15 04:47:46;;;;;;;44.07;29.37;;;13.70;72.80;;;;;;5064044;28;46417;-65
2022/04/15 04:50:12;;;;;;;44.00;30.53;;;13.70;72.80;;;;;;5052834;28;46513;-66
2022/04/15 04:52:39;;;;;;;41.67;30.13;;;13.80;72.90;;;;;;5059332;28;46424;-64
2022/04/15 04:55:06;;;;;;;43.63;29.13;;;13.80;72.80;;;;;;5064651;28;48143;-65
2022/04/15 04:57:32;;;;;;;44.73;29.57;;;13.80;72.80;;;;;;5054354;28;46338;-65
2022/04/15 04:59:58;;;;;;;40.93;28.30;;;13.90;72.60;;;;;;5058722;28;46350;-65
2022/04/15 05:02:23;;;;;;;43.90;30.00;;;13.90;72.40;;;;;;5065109;28;46396;-65
2022/04/15 05:04:49;;;;;;;40.53;29.20;;;14.00;72.30;;;;;;5063135;28;48690;-66
2022/04/15 05:07:15;;;;;;;50.50;29.77;;;14.00;72.20;;;;;;5082886;28;46274;-65
2022/04/15 05:09:43;;;;;;;43.53;30.27;;;14.00;72.10;;;;;;5064888;28;46374;-66
2022/04/15 05:12:12;;;;;;;48.60;28.93;;;14.00;72.20;;;;;;5065190;28;46537;-65
2022/04/15 05:14:39;;;;;;;43.63;30.47;;;14.00;72.30;;;;;;5079491;28;46569;-65
2022/04/15 05:17:05;;;;;;;44.30;31.53;;;14.10;72.50;;;;;;5056185;28;46540;-65
2022/04/15 05:19:31;;;;;;;40.87;29.87;;;14.10;72.40;;;;;;5060475;28;46385;-66
2022/04/15 05:21:57;;;;;;;42.20;30.23;;;14.10;72.30;;;;;;5058074;28;46544;-66
2022/04/15 05:24:22;;;;;;;48.17;31.17;;;14.10;72.30;;;;;;5082460;28;46335;-65
2022/04/15 05:26:48;;;;;;;44.23;31.20;;;14.20;72.40;;;;;;5056727;28;46466;-65
2022/04/15 05:29:14;;;;;;;47.10;29.90;;;14.20;72.40;;;;;;5055959;28;46470;-65
2022/04/15 05:31:39;;;;;;;50.63;32.50;;;14.10;73.10;;;;;;5057866;28;46192;-65
2022/04/15 05:34:05;;;;;;;41.87;29.10;;;14.00;73.20;;;;;;5055387;28;47959;-65
2022/04/15 05:36:31;;;;;;;48.80;31.80;;;14.00;73.50;;;;;;5065887;28;46397;-65
2022/04/15 05:38:57;;;;;;;47.47;30.57;;;13.90;73.50;;;;;;5064715;28;46422;-65
2022/04/15 05:41:23;;;;;;;50.00;32.77;;;13.90;73.80;;;;;;5064336;27;46430;-65
2022/04/15 05:43:49;;;;;;;40.97;29.33;;;13.90;73.80;;;;;;5063804;28;47292;-65
2022/04/15 05:46:15;;;;;;;42.40;28.93;;;13.90;74.30;;;;;;5058376;28;46396;-65
2022/04/15 05:48:41;;;;;;;43.13;31.20;;;13.80;74.70;;;;;;5064380;28;46343;-65
2022/04/15 05:51:07;;;;;;;40.57;28.77;;;13.80;74.70;;;;;;5064516;28;46269;-65
2022/04/15 05:53:32;;;;;;;46.73;30.10;;;13.80;74.90;;;;;;5058568;28;46397;-66
2022/04/15 05:55:58;;;;;;;44.03;30.23;;;13.80;74.90;;;;;;5057498;28;46448;-66
2022/04/15 05:58:25;;;;;;;41.30;28.37;;;13.80;75.00;;;;;;5061630;28;46553;-66
2022/04/15 06:00:51;;;;;;;40.63;28.77;;;13.80;75.10;;;;;;5059207;28;46458;-65
2022/04/15 06:03:20;;;;;;;40.43;28.43;;;13.80;74.90;;;;;;5060977;28;48069;-65
2022/04/15 06:05:46;;;;;;;43.87;29.37;;;13.80;75.00;;;;;;5058538;28;46390;-65
2022/04/15 06:08:12;;;;;;;47.00;32.73;;;13.80;75.20;;;;;;5080081;28;46445;-64
2022/04/15 06:10:38;;;;;;;41.00;28.50;;;13.90;74.80;;;;;;5057595;28;46425;-65
2022/04/15 06:13:09;;;;;;;42.30;29.20;;;14.00;74.40;;;;;;5056478;28;48638;-65
2022/04/15 06:15:40;;;;;;;38.00;28.43;;;14.00;74.50;;;;;;5052871;28;46442;-65
2022/04/15 06:18:06;;;;;;;45.60;27.97;;;14.10;75.40;;;;;;5060108;28;46428;-66
2022/04/15 06:20:32;;;;;;;39.27;28.70;;;14.10;74.00;;;;;;5058326;28;46295;-65
2022/04/15 06:22:58;;;;;;;40.13;28.03;;;14.20;73.60;;;;;;5059247;28;46385;-64
2022/04/15 06:25:24;;;;;;;35.77;24.83;;;14.40;73.20;;;;;;5062159;28;46428;-65
2022/04/15 06:27:54;;;;;;;33.40;26.20;;;14.50;72.60;;;;;;5056139;28;45940;-65
2022/04/15 06:30:21;;;;;;;37.80;26.10;;;14.60;72.20;;;;;;5062355;28;46747;-64
2022/04/15 06:32:47;;;;;;;40.77;27.00;;;14.70;72.20;;;;;;5061742;28;48809;-64
2022/04/15 06:35:13;;;;;;;36.03;25.10;;;14.70;71.90;;;;;;5060307;28;45838;-65
2022/04/15 06:37:39;;;;;;;37.37;26.33;;;14.70;71.90;;;;;;5062470;28;46311;-65
2022/04/15 06:40:05;;;;;;;39.80;25.33;;;14.70;72.30;;;;;;5053837;28;46383;-64
2022/04/15 06:42:31;;;;;;;36.27;25.50;;;14.60;72.40;;;;;;5063545;28;46483;-64
2022/04/15 06:44:59;;;;;;;34.33;24.33;;;14.60;72.60;;;;;;5081552;28;46355;-64
2022/04/15 06:47:25;;;;;;;32.77;24.47;;;14.40;72.90;;;;;;5069872;28;46292;-64
2022/04/15 06:49:50;;;;;;;40.90;26.00;;;14.30;73.30;;;;;;5060079;28;46472;-65
2022/04/15 06:52:17;;;;;;;40.63;24.93;;;14.30;73.40;;;;;;5053544;28;47935;-64
2022/04/15 06:54:43;;;;;;;39.43;26.73;;;14.20;73.30;;;;;;5081987;27;46356;-64
2022/04/15 06:57:09;;;;;;;39.10;24.80;;;14.20;73.40;;;;;;5085478;28;46363;-64
2022/04/15 06:59:35;;;;;;;35.70;23.87;;;14.10;73.60;;;;;;5056786;28;46283;-64
2022/04/15 07:02:01;;;;;;;39.10;23.70;;;14.10;73.60;;;;;;5066486;28;47070;-63
2022/04/15 07:04:28;;;;;;;32.00;21.77;;;14.00;73.60;;;;;;5084895;28;46455;-63
2022/04/15 07:06:54;;;;;;;40.30;23.67;;;14.10;73.20;;;;;;5066787;28;46472;-64
2022/04/15 07:09:20;;;;;;;34.60;23.53;;;14.20;72.90;;;;;;5066709;28;46432;-66
2022/04/15 07:11:46;;;;;;;30.20;22.57;;;14.30;72.40;;;;;;5084991;28;46365;-64
2022/04/15 07:14:12;;;;;;;31.80;22.90;;;14.50;71.80;;;;;;5084841;28;46555;-65
2022/04/15 07:16:38;;;;;;;37.43;24.67;;;14.70;71.20;;;;;;5063071;28;46277;-66
2022/04/15 07:19:04;;;;;;;34.23;24.60;;;14.80;70.90;;;;;;5066089;28;46251;-65
2022/04/15 07:21:38;;;;;;;33.67;24.80;;;14.80;70.70;;;;;;5060224;28;47819;-65
2022/04/15 07:24:05;;;;;;;34.80;23.53;;;14.90;70.50;;;;;;5052011;28;46323;-65
2022/04/15 07:26:32;;;;;;;36.50;22.23;;;14.90;70.40;;;;;;5084903;28;46397;-65
2022/04/15 07:28:58;;;;;;;39.87;23.47;;;14.80;70.50;;;;;;5066742;28;46413;-65
2022/04/15 07:31:24;;;;;;;35.83;23.90;;;14.80;70.70;;;;;;5066325;28;47762;-65
2022/04/15 07:33:51;;;;;;;34.37;21.17;;;14.80;70.70;;;;;;5057098;28;46412;-64
2022/04/15 07:39:06;;;;;;;31.70;22.67;;;14.90;70.40;;;;;;5079348;28;46363;-63
2022/04/15 07:41:33;;;;;;;31.97;22.03;;;15.10;69.80;;;;;;5067881;28;48789;-65
2022/04/15 07:43:59;;;;;;;29.70;20.83;;;15.40;70.50;;;;;;5043327;28;46221;-64
2022/04/15 07:46:24;;;;;;;32.33;19.07;;;15.60;68.30;;;;;;5066535;28;46278;-64
2022/04/15 07:48:50;;;;;;;27.37;19.70;;;15.60;67.30;;;;;;5067091;28;46425;-64
2022/04/15 07:51:16;;;;;;;28.97;19.90;;;15.70;67.10;;;;;;5066371;28;48081;-64
2022/04/15 07:53:41;;;;;;;28.80;19.17;;;15.70;67.10;;;;;;5066837;28;46362;-64
2022/04/15 07:56:07;;;;;;;26.83;18.03;;;15.70;67.10;;;;;;5066477;28;46385;-63
2022/04/15 07:58:34;;;;;;;27.10;19.70;;;15.80;66.80;;;;;;5056268;28;46204;-63
2022/04/15 08:01:00;;;;;;;29.83;20.53;;;15.80;66.50;;;;;;5062489;28;46394;-65
2022/04/15 08:03:26;;;;;;;25.70;19.83;;;16.10;65.80;;;;;;5066314;28;46386;-65
2022/04/15 08:05:53;;;;;;;22.90;17.70;;;16.30;65.10;;;;;;5056709;28;46437;-65
2022/04/15 08:08:19;;;;;;;24.73;18.40;;;16.50;64.30;;;;;;5060128;28;46529;-64
2022/04/15 08:10:47;;;;;;;28.37;18.50;;;16.80;62.80;;;;;;5059215;28;47811;-64
2022/04/15 08:13:12;;;;;;;26.50;18.63;;;16.90;62.30;;;;;;5058415;28;46291;-65
2022/04/15 08:15:38;;;;;;;27.03;16.70;;;17.00;61.60;;;;;;5065260;28;46381;-64
2022/04/15 08:18:04;;;;;;;22.07;16.30;;;17.20;61.20;;;;;;5066162;28;46072;-65
2022/04/15 08:20:30;;;;;;;24.47;15.57;;;17.00;61.50;;;;;;5059751;28;48382;-65
2022/04/15 08:22:55;;;;;;;41.67;26.60;;;17.10;60.60;;;;;;5056218;28;46537;-65
2022/04/15 08:25:21;;;;;;;28.60;17.73;;;17.00;60.40;;;;;;5084258;28;46238;-65
2022/04/15 08:27:47;;;;;;;24.23;16.90;;;17.10;60.10;;;;;;5066035;28;46635;-65
2022/04/15 08:30:13;;;;;;;21.87;14.57;;;17.30;58.50;;;;;;5065927;28;46444;-66
2022/04/15 08:32:38;;;;;;;21.80;15.50;;;17.20;58.30;;;;;;5065411;28;46512;-64
2022/04/15 08:35:06;;;;;;;22.97;16.57;;;17.20;58.30;;;;;;5060258;28;46419;-65
2022/04/15 08:37:33;;;;;;;21.57;15.60;;;17.50;58.50;;;;;;5066113;28;46338;-66
2022/04/15 08:40:00;;;;;;;18.93;13.27;;;17.70;57.50;;;;;;5082476;28;47724;-65
2022/04/15 08:42:26;;;;;;;20.07;13.57;;;17.90;56.90;;;;;;5065802;28;45782;-66
2022/04/15 08:44:53;;;;;;;18.17;12.23;;;18.20;55.60;;;;;;5082095;28;46437;-64
2022/04/15 08:47:20;;;;;;;17.27;12.00;;;18.30;55.00;;;;;;5057505;28;46354;-66
2022/04/15 08:49:47;;;;;;;24.00;12.80;;;18.20;54.00;;;;;;5065962;28;47990;-65
2022/04/15 08:52:17;;;;;;;15.10;10.00;;;18.40;53.40;;;;;;5082249;28;46461;-65
2022/04/15 08:54:44;;;;;;;15.40;10.30;;;18.40;52.40;;;;;;5057422;28;46265;-66
2022/04/15 08:57:11;;;;;;;13.47;9.80;;;18.60;51.20;;;;;;5068371;28;46430;-65
2022/04/15 08:59:40;;;;;;;17.90;12.50;;;18.40;51.10;;;;;;5065669;28;48012;-66
2022/04/15 09:02:06;;;;;;;14.80;10.00;;;18.50;50.80;;;;;;5064442;28;46387;-64
2022/04/15 09:04:32;;;;;;;16.47;10.27;;;18.60;50.30;;;;;;5065276;28;46409;-65
2022/04/15 09:07:00;;;;;;;16.40;10.37;;;18.70;49.30;;;;;;5065072;28;46405;-65
2022/04/15 09:09:30;;;;;;;14.67;10.57;;;18.90;48.10;;;;;;5058941;28;48198;-64
2022/04/15 09:12:04;;;;;;;12.67;9.20;;;19.00;47.40;;;;;;5058826;28;46378;-66
2022/04/15 09:14:30;;;;;;;13.73;10.07;;;19.20;46.90;;;;;;5051090;28;46376;-64
2022/04/15 09:16:55;;;;;;;13.03;9.80;;;19.10;46.90;;;;;;5053413;28;46524;-65
2022/04/15 09:19:25;;;;;;;16.07;10.23;;;19.00;47.20;;;;;;5081658;28;46408;-64
2022/04/15 09:21:54;;;;;;;16.10;11.70;;;18.80;47.70;;;;;;5082403;28;46324;-65
2022/04/15 09:24:27;;;;;;;16.30;11.40;;;18.60;48.50;;;;;;5058797;28;46490;-62
2022/04/15 09:26:54;;;;;;;14.07;10.10;;;18.50;47.30;;;;;;5051375;28;46504;-64
2022/04/15 09:29:21;;;;;;;16.23;10.10;;;18.30;48.10;;;;;;5057155;28;47295;-65
2022/04/15 09:31:47;;;;;;;19.10;11.73;;;18.10;48.70;;;;;;5081736;28;46555;-65
2022/04/15 09:34:13;;;;;;;22.57;12.73;;;18.00;48.70;;;;;;5065005;28;46410;-66
2022/04/15 09:36:39;;;;;;;16.13;10.20;;;17.90;49.20;;;;;;5058824;28;46516;-65
2022/04/15 09:39:10;;;;;;;22.30;10.67;;;17.80;49.30;;;;;;5064700;28;46511;-65
2022/04/15 09:41:54;;;;;;;14.93;9.80;;;17.80;49.50;;;;;;5064488;28;46381;-65
2022/04/15 09:44:22;;;;;;;12.90;8.80;;;17.80;49.70;;;;;;5059498;28;46493;-64
2022/04/15 09:46:50;;;;;;;15.37;10.23;;;18.00;49.40;;;;;;5054485;28;46444;-64
2022/04/15 09:49:16;;;;;;;14.83;6.83;;;18.00;49.10;;;;;;5055668;28;47323;-65
2022/04/15 09:51:45;;;;;;;12.87;8.30;;;18.00;48.80;;;;;;5064644;28;46504;-64
2022/04/15 09:54:34;;;;;;;13.80;8.47;;;18.00;48.50;;;;;;5063311;28;46429;-64
2022/04/15 09:57:01;;;;;;;14.40;9.40;;;18.20;48.00;;;;;;5060496;28;46471;-64
2022/04/15 09:59:29;;;;;;;14.93;9.23;;;18.40;47.60;;;;;;5060524;28;48011;-64
2022/04/15 10:02:02;;;;;;;14.30;8.87;;;18.40;46.60;;;;;;5063737;28;46379;-64
2022/04/15 10:04:28;;;;;;;13.80;9.70;;;18.50;46.30;;;;;;5056430;28;46552;-64
2022/04/15 10:06:54;;;;;;;15.73;9.90;;;18.50;45.50;;;;;;5067274;28;46331;-64
2022/04/15 10:09:21;;;;;;;19.77;9.53;;;18.20;45.50;;;;;;5066961;28;46328;-65
2022/04/15 10:11:48;;;;;;;13.77;8.47;;;18.30;44.70;;;;;;5085737;28;46281;-66
2022/04/15 10:14:16;;;;;;;11.50;8.33;;;18.70;43.90;;;;;;5064513;28;46417;-64
2022/04/15 10:16:43;;;;;;;11.83;9.07;;;19.00;43.20;;;;;;5063192;28;46355;-64
2022/04/15 10:19:10;;;;;;;17.77;9.97;;;19.40;42.70;;;;;;5054839;28;47906;-64
2022/04/15 10:21:43;;;;;;;13.40;9.20;;;19.50;42.30;;;;;;5084547;28;46319;-66
2022/04/15 10:24:09;;;;;;;14.00;11.00;;;19.50;42.10;;;;;;5068714;28;46377;-62
2022/04/15 10:26:46;;;;;;;15.93;10.57;;;19.90;41.80;;;;;;5065135;28;46422;-64
2022/04/15 10:29:12;;;;;;;14.00;10.80;;;20.00;40.90;;;;;;5060502;28;48001;-65
2022/04/15 10:31:45;;;;;;;14.00;10.00;;;20.10;40.90;;;;;;5066589;28;45956;-65
2022/04/15 10:34:13;;;;;;;12.83;9.00;;;20.20;40.90;;;;;;5060453;28;46379;-64
2022/04/15 10:36:50;;;;;;;14.30;10.33;;;20.40;40.60;;;;;;5075288;28;46500;-65
2022/04/15 10:39:19;;;;;;;16.37;12.17;;;20.50;40.10;;;;;;5056308;28;49055;-65
2022/04/15 10:41:53;;;;;;;14.40;10.63;;;20.60;40.20;;;;;;5065170;28;46362;-65
2022/04/15 10:44:28;;;;;;;17.37;11.93;;;20.70;39.50;;;;;;5065496;28;46392;-64
2022/04/15 10:46:59;;;;;;;18.63;12.37;;;20.70;38.80;;;;;;5055724;28;46477;-65
2022/04/15 10:49:30;;;;;;;15.70;10.80;;;21.10;38.40;;;;;;5066016;28;47911;-65
2022/04/15 10:52:20;;;;;;;15.73;11.30;;;21.60;38.10;;;;;;5066261;28;46608;-64
2022/04/15 10:54:46;;;;;;;17.70;11.37;;;21.90;37.60;;;;;;5058581;28;46395;-65
2022/04/15 10:57:15;;;;;;;19.10;11.67;;;22.20;36.60;;;;;;5062286;28;46541;-65
2022/04/15 11:02:39;;;;;;;15.00;10.13;;;22.10;36.00;;;;;;5081525;28;46286;-66
2022/04/15 11:05:07;;;;;;;14.13;10.57;;;22.10;36.00;;;;;;5066074;28;45939;-68
2022/04/15 11:07:43;;;;;;;14.47;10.17;;;22.10;36.00;;;;;;5058806;28;45965;-65
2022/04/15 11:10:37;;;;;;;16.33;10.43;;;21.90;35.10;;;;;;5062582;28;46445;-65
2022/04/15 11:13:03;;;;;;;15.10;9.53;;;21.60;35.50;;;;;;5055572;28;46449;-65
2022/04/15 11:16:04;;;;;;;14.43;10.40;;;21.70;35.60;;;;;;5064929;28;46287;-66
2022/04/15 11:18:50;;;;;;;13.87;9.07;;;22.10;34.90;;;;;;5058443;28;46742;-67
2022/04/15 11:21:23;;;;;;;12.23;8.47;;;22.50;33.50;;;;;;5084354;28;47374;-65
2022/04/15 11:23:57;;;;;;;15.53;10.07;;;22.90;32.80;;;;;;5057879;28;46445;-65
2022/04/15 11:26:26;;;;;;;13.83;9.13;;;23.00;32.90;;;;;;5056444;28;46516;-66
2022/04/15 11:28:53;;;;;;;14.07;9.50;;;23.10;32.70;;;;;;5065394;28;46413;-66
2022/04/15 11:31:23;;;;;;;14.00;9.70;;;23.00;32.20;;;;;;5063102;28;47735;-66
2022/04/15 11:33:49;;;;;;;10.43;7.87;;;23.00;31.60;;;;;;5064536;28;46423;-65
2022/04/15 11:36:15;;;;;;;13.10;8.43;;;22.80;31.60;;;;;;5064605;28;46795;-67
2022/04/15 11:38:43;;;;;;;14.70;8.13;;;22.10;31.50;;;;;;5053102;28;46406;-67
2022/04/15 11:41:10;;;;;;;9.53;7.03;;;21.80;32.80;;;;;;5083655;27;47261;-67
2022/04/15 11:43:35;;;;;;;13.37;8.90;;;21.40;33.30;;;;;;5063865;28;46327;-66
2022/04/15 11:46:01;;;;;;;13.30;8.40;;;20.90;33.80;;;;;;5081349;28;46399;-66
2022/04/15 11:48:27;;;;;;;10.33;7.60;;;20.40;34.40;;;;;;5084265;28;46612;-66
2022/04/15 11:50:54;;;;;;;10.20;7.77;;;20.40;34.40;;;;;;5065323;28;48034;-65
2022/04/15 11:53:22;;;;;;;13.30;8.50;;;20.50;34.50;;;;;;5065638;28;46412;-66
2022/04/15 11:55:55;;;;;;;12.93;7.97;;;20.50;34.50;;;;;;5063878;28;46373;-65
2022/04/15 11:58:30;;;;;;;10.40;6.70;;;20.70;33.90;;;;;;5065724;28;46575;-66
2022/04/15 12:00:57;;;;;;;12.47;7.40;;;21.00;33.30;;;;;;5062887;28;48793;-66
2022/04/15 12:03:25;;;;;;;10.13;7.67;;;21.20;33.10;;;;;;5065204;28;46419;-65
2022/04/15 12:05:52;;;;;;;12.30;7.90;;;21.10;33.70;;;;;;5083111;28;46260;-66
2022/04/15 12:08:19;;;;;;;12.17;7.60;;;21.10;33.70;;;;;;5065850;28;46515;-66
2022/04/15 12:10:47;;;;;;;10.60;7.27;;;21.00;33.10;;;;;;5083096;28;47176;-67
2022/04/15 12:13:14;;;;;;;9.60;7.27;;;21.00;33.40;;;;;;5064756;28;46395;-67
2022/04/15 12:15:40;;;;;;;16.87;7.43;;;21.10;33.60;;;;;;5083286;28;46394;-67
2022/04/15 12:18:06;;;;;;;10.63;6.00;;;21.30;33.40;;;;;;5065368;28;46435;-66
2022/04/15 12:20:34;;;;;;;10.13;6.80;;;21.10;32.00;;;;;;5065137;28;47459;-66
2022/04/15 12:23:00;;;;;;;11.30;6.60;;;21.00;31.10;;;;;;5065265;28;46413;-66
2022/04/15 12:26:05;;;;;;;8.83;5.40;;;20.70;31.10;;;;;;5083241;28;46453;-67
2022/04/15 12:29:47;;;;;;;14.77;6.33;;;20.90;31.20;;;;;;5082464;28;46452;-65
2022/04/15 12:30:59;;;;;;;11.23;6.30;;;20.90;31.10;;;;;;5079503;28;46978;-65
2022/04/15 12:33:25;;;;;;;9.50;6.30;;;20.90;30.70;;;;;;5064688;28;46330;-65
2022/04/15 12:36:02;;;;;;;10.73;6.53;;;20.80;30.70;;;;;;5054153;28;46468;-65